Time;durP1;ratioP1;P1;durP2;ratioP2;P2;SDS_P1;SDS_P2;PMS_P1;PMS_P2;Temp;Humidity;BMP_temperature;BMP_pressure;BME280_temperature;BME280_humidity;BME280_pressure;Samples;Min_cycle;Max_cycle;Signal;HPM_P1;HPM_P2
2022/11/06 00:02:12;;;;;;;8.50;3.20;;;10.60;99.90;;;;;;6213690;23;20011;-88
2022/11/06 00:04:49;;;;;;;8.10;3.33;;;10.50;99.90;;;;;;6187548;23;20005;-88
2022/11/06 00:07:44;;;;;;;12.03;3.37;;;10.50;99.90;;;;;;6187176;23;20008;-88
2022/11/06 00:10:32;;;;;;;9.27;3.57;;;10.50;99.90;;;;;;6168001;23;20039;-88
2022/11/06 00:13:59;;;;;;;7.47;2.90;;;10.50;99.90;;;;;;6212864;23;20087;-88
2022/11/06 00:16:48;;;;;;;7.73;3.23;;;10.50;99.90;;;;;;6211730;23;20012;-87
2022/11/06 00:27:28;;;;;;;8.97;3.23;;;10.40;99.90;;;;;;6015492;23;20073;-88
2022/11/06 00:30:02;;;;;;;9.70;3.60;;;10.40;99.90;;;;;;6100542;23;20012;-88
2022/11/06 00:33:09;;;;;;;;;;;;;;;;;;;;;
2022/11/06 00:36:05;;;;;;;10.47;3.53;;;10.40;99.90;;;;;;6210986;23;20016;-88
2022/11/06 00:39:10;;;;;;;7.57;3.33;;;10.30;99.90;;;;;;6186531;23;20030;-88
2022/11/06 00:45:20;;;;;;;7.32;3.85;;;10.30;99.90;;;;;;6206025;23;20012;-88
2022/11/06 00:48:28;;;;;;;;;;;;;;;;;;;;;
2022/11/06 00:51:35;;;;;;;8.37;3.93;;;10.20;99.90;;;;;;6187136;23;20459;-88
2022/11/06 01:12:18;;;;;;;8.03;4.33;;;10.20;99.90;;;;;;6236511;22;20008;-88
2022/11/06 01:19:09;;;;;;;;;;;;;;;;;;;;;
2022/11/06 01:21:57;;;;;;;8.00;4.10;;;10.10;99.90;;;;;;6242424;23;20347;-88
2022/11/06 01:34:10;;;;;;;9.43;3.97;;;10.00;99.90;;;;;;6226668;23;20011;-88
2022/11/06 01:36:45;;;;;;;10.30;4.32;;;10.00;99.90;;;;;;6191191;23;20032;-88
2022/11/06 01:39:17;;;;;;;7.63;3.90;;;10.00;99.90;;;;;;6238633;23;20004;-88
2022/11/06 01:41:49;;;;;;;11.00;4.03;;;10.00;99.90;;;;;;6242500;23;20439;-87
2022/11/06 01:44:35;;;;;;;6.83;3.53;;;10.00;99.90;;;;;;6268141;22;20012;-88
2022/11/06 01:47:17;;;;;;;12.57;4.37;;;10.00;99.90;;;;;;6242283;23;20008;-87
2022/11/06 01:50:25;;;;;;;7.27;3.37;;;10.00;99.90;;;;;;6242131;23;20008;-87
2022/11/06 01:52:55;;;;;;;10.43;3.80;;;10.00;99.90;;;;;;6243199;23;20069;-87
2022/11/06 01:55:31;;;;;;;11.00;3.90;;;10.00;99.90;;;;;;6219292;23;20039;-88
2022/11/06 01:58:00;;;;;;;8.97;3.90;;;10.00;99.90;;;;;;6244166;23;20402;-87
2022/11/06 02:00:31;;;;;;;7.53;3.10;;;10.00;99.90;;;;;;6245209;22;20004;-88
2022/11/06 02:03:06;;;;;;;8.33;3.30;;;10.00;99.90;;;;;;6244169;23;20000;-87
2022/11/06 02:06:05;;;;;;;9.53;3.07;;;10.00;99.90;;;;;;6245797;23;20000;-88
2022/11/06 02:08:45;;;;;;;6.80;3.67;;;10.00;99.90;;;;;;6216375;23;20000;-88
2022/11/06 02:11:21;;;;;;;7.37;3.20;;;10.00;99.90;;;;;;6245522;22;20447;-88
2022/11/06 02:14:45;;;;;;;6.80;2.83;;;10.10;99.90;;;;;;6242036;23;20012;-88
2022/11/06 02:17:30;;;;;;;6.83;2.63;;;10.00;99.90;;;;;;6243916;23;20008;-88
2022/11/06 02:20:27;;;;;;;7.27;2.73;;;10.10;99.90;;;;;;6244008;23;20355;-88
2022/11/06 02:23:45;;;;;;;7.33;3.13;;;10.10;99.90;;;;;;6243953;23;20019;-87
2022/11/06 02:26:42;;;;;;;6.65;2.30;;;10.10;99.90;;;;;;6227810;23;20217;-88
2022/11/06 02:29:20;;;;;;;6.17;2.40;;;10.10;99.90;;;;;;6243759;22;20073;-87
2022/11/06 02:31:58;;;;;;;8.53;2.70;;;10.10;99.90;;;;;;6218333;23;20035;-88
2022/11/06 02:34:28;;;;;;;8.10;2.50;;;10.10;99.90;;;;;;6243630;23;20051;-87
2022/11/06 02:37:24;;;;;;;7.67;2.60;;;10.10;99.90;;;;;;6245401;23;20008;-88
2022/11/06 02:43:54;;;;;;;7.13;2.30;;;10.10;99.90;;;;;;6223731;23;20023;-88
2022/11/06 02:53:41;;;;;;;6.80;2.50;;;10.10;99.90;;;;;;6215136;22;20012;-88
2022/11/06 02:56:28;;;;;;;7.17;2.40;;;10.10;99.90;;;;;;6243483;23;20004;-87
2022/11/06 02:59:36;;;;;;;5.43;2.30;;;10.10;99.90;;;;;;6241988;23;20458;-88
2022/11/06 03:02:13;;;;;;;5.30;1.90;;;10.20;99.90;;;;;;6227456;23;20015;-88
2022/11/06 03:04:47;;;;;;;6.70;2.10;;;10.10;99.90;;;;;;6243632;23;20005;-88
2022/11/06 05:01:33;;;;;;;7.70;1.80;;;9.90;99.90;;;;;;6123646;23;20037;-89
2022/11/06 05:34:31;;;;;;;8.40;1.70;;;9.90;99.90;;;;;;6212827;22;20028;-84
2022/11/06 05:36:57;;;;;;;4.77;1.63;;;9.90;99.90;;;;;;6218046;23;20019;-87
2022/11/06 05:39:23;;;;;;;5.53;1.70;;;9.90;99.90;;;;;;6238827;23;20008;-85
2022/11/06 05:41:49;;;;;;;8.60;1.67;;;9.90;99.90;;;;;;6244935;23;20083;-85
2022/11/06 05:44:15;;;;;;;5.53;1.80;;;9.90;99.90;;;;;;6249326;23;20031;-86
2022/11/06 05:46:40;;;;;;;7.03;1.80;;;9.90;99.90;;;;;;6244462;23;20011;-84
2022/11/06 05:49:07;;;;;;;8.00;2.07;;;9.90;99.90;;;;;;6244553;22;20439;-84
2022/11/06 05:51:33;;;;;;;5.33;2.10;;;9.90;99.90;;;;;;6244689;23;20004;-84
2022/11/06 05:53:58;;;;;;;7.63;1.90;;;10.00;99.90;;;;;;6244671;23;20015;-84
2022/11/06 05:56:24;;;;;;;6.77;2.10;;;10.00;99.90;;;;;;6244501;23;20129;-84
2022/11/06 05:58:50;;;;;;;6.93;2.13;;;10.00;99.90;;;;;;6242704;23;20015;-84
2022/11/06 06:01:16;;;;;;;6.17;1.93;;;10.00;99.90;;;;;;6244543;23;20008;-84
2022/11/06 06:03:41;;;;;;;8.93;2.30;;;9.90;99.90;;;;;;6243198;23;20439;-84
2022/11/06 06:06:07;;;;;;;6.47;1.90;;;9.90;99.90;;;;;;6244394;23;20004;-85
2022/11/06 06:08:33;;;;;;;8.40;2.57;;;10.00;99.90;;;;;;6244419;22;20004;-84
2022/11/06 06:11:06;;;;;;;7.80;1.90;;;10.00;99.90;;;;;;6242962;23;20019;-90
2022/11/06 06:17:31;;;;;;;7.60;2.27;;;10.10;99.90;;;;;;6245409;23;20066;-88
2022/11/06 06:20:54;;;;;;;12.63;5.40;;;10.00;99.90;;;;;;6243555;23;20007;-88
2022/11/06 06:23:40;;;;;;;8.17;3.23;;;10.00;99.90;;;;;;6232431;22;20057;-89
2022/11/06 06:26:06;;;;;;;7.57;2.53;;;10.00;99.90;;;;;;6244434;23;20035;-87
2022/11/06 06:28:40;;;;;;;7.10;2.37;;;10.00;99.90;;;;;;6217722;23;20066;-88
2022/11/06 06:31:18;;;;;;;8.43;1.90;;;10.00;99.90;;;;;;6243711;23;20124;-87
2022/11/06 06:40:33;;;;;;;7.23;2.03;;;10.00;99.90;;;;;;6215641;22;20321;-88
2022/11/06 06:42:59;;;;;;;6.23;1.73;;;10.00;99.90;;;;;;6162934;23;20450;-88
2022/11/06 06:46:24;;;;;;;6.00;1.90;;;10.00;99.90;;;;;;6189547;23;20083;-86
2022/11/06 06:58:28;;;;;;;7.23;1.73;;;9.90;99.90;;;;;;6215714;22;20465;-89
2022/11/06 07:01:09;;;;;;;8.77;2.03;;;10.00;99.90;;;;;;6155779;23;20497;-91
2022/11/06 07:03:36;;;;;;;7.80;1.57;;;10.00;99.90;;;;;;6215720;23;20005;-84
2022/11/06 07:06:09;;;;;;;5.97;1.60;;;10.00;99.90;;;;;;6214047;23;20029;-87
2022/11/06 07:11:22;;;;;;;7.07;1.73;;;10.00;99.90;;;;;;6208773;22;20020;-87
2022/11/06 07:14:09;;;;;;;6.63;1.77;;;10.00;99.90;;;;;;6250331;23;20070;-94
2022/11/06 07:16:49;;;;;;;7.37;1.83;;;10.00;99.90;;;;;;6206486;23;20394;-87
2022/11/06 07:19:40;;;;;;;;;;;;;;;;;;;;;
2022/11/06 07:22:34;;;;;;;8.73;1.67;;;10.10;99.90;;;;;;6243299;23;20355;-87
2022/11/06 07:25:00;;;;;;;10.03;1.87;;;10.10;99.90;;;;;;6244581;22;20014;-86
2022/11/06 07:27:29;;;;;;;5.73;1.50;;;10.10;99.90;;;;;;6244053;23;20354;-84
2022/11/06 07:29:54;;;;;;;6.10;1.55;;;10.10;99.90;;;;;;6217181;23;20012;-84
2022/11/06 07:36:16;;;;;;;5.27;1.40;;;10.20;99.90;;;;;;6243686;23;20074;-89
2022/11/06 07:42:32;;;;;;;5.73;1.50;;;10.30;99.90;;;;;;6150364;23;20051;-85
2022/11/06 07:45:08;;;;;;;7.70;1.93;;;10.30;99.90;;;;;;6217188;23;20018;-88
2022/11/06 07:53:02;;;;;;;5.57;1.77;;;10.30;99.90;;;;;;6242276;22;20020;-84
2022/11/06 07:55:28;;;;;;;8.23;1.90;;;10.40;99.90;;;;;;6218000;23;20079;-85
2022/11/06 07:57:53;;;;;;;6.63;1.60;;;10.40;99.90;;;;;;6243304;23;20403;-85
2022/11/06 08:00:20;;;;;;;11.53;2.50;;;10.30;99.90;;;;;;6242816;23;20000;-86
2022/11/06 08:02:50;;;;;;;7.47;1.93;;;10.40;99.90;;;;;;6242981;23;20008;-84
2022/11/06 08:05:16;;;;;;;5.90;1.83;;;10.40;99.90;;;;;;6241475;23;20099;-83
2022/11/06 08:07:42;;;;;;;6.17;1.70;;;10.40;99.90;;;;;;6241147;23;20032;-83
2022/11/06 08:10:14;;;;;;;7.10;1.60;;;10.40;99.90;;;;;;6243606;23;20007;-89
2022/11/06 08:12:42;;;;;;;6.13;1.70;;;10.40;99.90;;;;;;6244593;23;20031;-86
2022/11/06 08:15:08;;;;;;;6.93;1.70;;;10.40;99.90;;;;;;6243361;23;20442;-85
2022/11/06 08:17:34;;;;;;;7.17;1.40;;;10.40;99.90;;;;;;6243495;22;20088;-85
2022/11/06 08:20:00;;;;;;;7.60;1.53;;;10.50;99.90;;;;;;6243021;22;20401;-86
2022/11/06 08:22:25;;;;;;;7.57;1.50;;;10.50;99.90;;;;;;6243251;23;20103;-85
2022/11/06 08:24:51;;;;;;;8.20;1.80;;;10.50;99.90;;;;;;6243359;22;20008;-87
2022/11/06 08:27:17;;;;;;;7.77;1.50;;;10.50;99.90;;;;;;6243011;23;20011;-85
2022/11/06 08:29:43;;;;;;;6.60;1.53;;;10.50;99.90;;;;;;6242898;22;20474;-85
2022/11/06 08:32:08;;;;;;;6.40;1.57;;;10.50;99.90;;;;;;6241713;23;20096;-86
2022/11/06 08:34:35;;;;;;;8.17;1.80;;;10.50;99.90;;;;;;6243250;23;20008;-86
2022/11/06 08:37:01;;;;;;;7.03;1.47;;;10.60;99.90;;;;;;6241498;23;20019;-85
2022/11/06 08:39:35;;;;;;;6.37;1.93;;;10.60;99.90;;;;;;6243232;22;20008;-90
2022/11/06 08:42:03;;;;;;;7.07;1.70;;;10.70;99.90;;;;;;6242879;23;20019;-85
2022/11/06 08:44:28;;;;;;;7.20;2.10;;;10.80;99.90;;;;;;6243125;22;20011;-83
2022/11/06 08:49:59;;;;;;;10.00;2.00;;;11.00;99.90;;;;;;6242817;23;20662;-84
2022/11/06 08:56:26;;;;;;;7.03;1.90;;;11.00;99.90;;;;;;6245980;23;20006;-93
2022/11/06 08:59:35;;;;;;;7.27;1.70;;;11.00;99.90;;;;;;6226937;22;20012;-89
2022/11/06 09:02:01;;;;;;;;;;;11.00;99.90;;;;;;6192853;23;20328;-89
2022/11/06 09:04:46;;;;;;;9.10;2.30;;;11.00;99.90;;;;;;6243559;23;19982;-86
2022/11/06 09:07:12;;;;;;;7.83;2.27;;;11.00;99.90;;;;;;6242855;23;20028;-86
2022/11/06 09:12:29;;;;;;;7.97;1.80;;;11.00;99.90;;;;;;6242506;22;20078;-89
2022/11/06 09:14:55;;;;;;;9.27;1.87;;;11.10;99.90;;;;;;6219042;23;20015;-83
2022/11/06 09:17:23;;;;;;;6.20;1.80;;;11.10;99.90;;;;;;6243819;23;20000;-83
2022/11/06 09:19:52;;;;;;;7.37;2.00;;;11.10;99.90;;;;;;6242769;23;20026;-84
2022/11/06 09:22:18;;;;;;;6.90;1.67;;;11.10;99.90;;;;;;6241362;23;20040;-83
2022/11/06 09:24:44;;;;;;;5.30;1.70;;;11.10;99.90;;;;;;6241718;23;20008;-83
2022/11/06 09:27:10;;;;;;;5.37;2.10;;;11.10;99.90;;;;;;6242683;22;20012;-84
2022/11/06 09:29:39;;;;;;;7.17;2.27;;;11.20;99.90;;;;;;6243105;22;20004;-83
2022/11/06 09:32:06;;;;;;;4.53;1.67;;;11.20;99.90;;;;;;6243936;23;20019;-87
2022/11/06 09:34:32;;;;;;;6.60;2.23;;;11.20;99.90;;;;;;6241327;23;20019;-83
2022/11/06 09:37:00;;;;;;;7.40;1.80;;;11.20;99.90;;;;;;6242620;23;20433;-82
2022/11/06 09:39:25;;;;;;;5.13;1.70;;;11.20;99.90;;;;;;6240945;23;20012;-85
2022/11/06 09:42:20;;;;;;;5.40;1.50;;;11.30;99.90;;;;;;6240988;23;20044;-83
2022/11/06 09:45:07;;;;;;;7.50;1.90;;;11.30;99.90;;;;;;6242681;22;20004;-83
2022/11/06 09:47:36;;;;;;;5.37;2.00;;;11.30;99.90;;;;;;6242180;22;20374;-83
2022/11/06 09:50:05;;;;;;;6.00;1.50;;;11.40;99.90;;;;;;6241718;22;20500;-84
2022/11/06 09:52:38;;;;;;;6.63;1.60;;;11.40;99.90;;;;;;6242373;23;20303;-84
2022/11/06 09:55:26;;;;;;;5.83;1.50;;;11.40;99.90;;;;;;6240882;23;20015;-84
2022/11/06 09:58:10;;;;;;;8.33;1.90;;;11.50;99.90;;;;;;6240462;23;20043;-83
2022/11/06 10:00:38;;;;;;;5.90;1.60;;;11.50;99.90;;;;;;6241928;23;20066;-83
2022/11/06 10:03:41;;;;;;;8.97;2.07;;;11.50;99.90;;;;;;6242675;23;20008;-84
2022/11/06 10:06:07;;;;;;;3.93;1.50;;;11.50;99.90;;;;;;6242570;23;20316;-84
2022/11/06 10:08:33;;;;;;;7.10;1.73;;;11.60;99.90;;;;;;6242382;23;20026;-83
2022/11/06 10:11:13;;;;;;;6.60;1.67;;;11.60;99.90;;;;;;6255487;22;20012;-84
2022/11/06 10:14:01;;;;;;;5.20;1.70;;;11.60;99.90;;;;;;6248513;22;20011;-83
2022/11/06 10:16:43;;;;;;;6.90;2.50;;;11.60;99.90;;;;;;6274929;22;20147;-83
2022/11/06 10:19:30;;;;;;;6.90;2.33;;;11.60;99.90;;;;;;6274725;22;20066;-83
2022/11/06 10:22:31;;;;;;;6.80;1.97;;;11.60;99.90;;;;;;6275091;22;20267;-84
2022/11/06 10:25:18;;;;;;;8.83;2.80;;;11.70;99.90;;;;;;6275410;22;20015;-81
2022/11/06 10:28:07;;;;;;;5.60;1.80;;;11.70;99.90;;;;;;6274907;22;20026;-83
2022/11/06 10:30:40;;;;;;;;;;;11.70;99.90;;;;;;6275332;22;20026;-84
2022/11/06 10:33:16;;;;;;;9.60;2.77;;;11.70;99.90;;;;;;6274947;22;19985;-84
2022/11/06 10:36:01;;;;;;;6.77;1.90;;;11.70;99.90;;;;;;6274729;22;20008;-83
2022/11/06 10:38:32;;;;;;;9.50;2.07;;;11.70;99.90;;;;;;6274880;22;20107;-84
2022/11/06 10:41:00;;;;;;;6.23;1.80;;;11.70;99.90;;;;;;6274839;22;20015;-84
2022/11/06 10:43:28;;;;;;;8.57;2.80;;;11.70;99.90;;;;;;6275419;22;20007;-83
2022/11/06 10:46:31;;;;;;;6.25;2.30;;;11.70;99.90;;;;;;6274631;22;20079;-84
2022/11/06 10:49:00;;;;;;;6.83;2.07;;;11.80;99.90;;;;;;6274377;22;20004;-84
2022/11/06 10:51:41;;;;;;;7.28;1.98;;;11.70;99.90;;;;;;6275204;22;20018;-84
2022/11/06 10:54:34;;;;;;;8.70;2.53;;;11.80;99.90;;;;;;6274971;22;20019;-84
2022/11/06 10:57:22;;;;;;;6.20;2.00;;;11.80;99.90;;;;;;6274514;22;20004;-84
2022/11/06 10:59:49;;;;;;;7.55;2.00;;;11.80;99.90;;;;;;6274394;22;20007;-84
2022/11/06 11:02:32;;;;;;;5.07;1.80;;;11.80;99.90;;;;;;6274933;22;20015;-83
2022/11/06 11:04:58;;;;;;;7.17;2.20;;;11.80;99.90;;;;;;6274524;22;20008;-84
2022/11/06 11:07:29;;;;;;;4.80;1.63;;;11.90;99.90;;;;;;6247277;22;20008;-84
2022/11/06 11:09:55;;;;;;;7.80;2.43;;;11.90;99.90;;;;;;6274168;22;20018;-84
2022/11/06 11:12:26;;;;;;;7.37;1.90;;;11.90;99.90;;;;;;6247695;22;20401;-83
2022/11/06 11:15:16;;;;;;;5.10;1.90;;;11.90;99.90;;;;;;6274998;22;20323;-84
2022/11/06 11:17:42;;;;;;;5.60;2.17;;;11.90;99.90;;;;;;6247163;22;20014;-84
2022/11/06 11:20:29;;;;;;;6.90;1.83;;;11.90;99.90;;;;;;6247621;22;20015;-84
2022/11/06 11:23:23;;;;;;;7.27;1.80;;;11.90;99.90;;;;;;6246875;22;20404;-84
2022/11/06 11:25:52;;;;;;;5.90;1.57;;;12.00;99.90;;;;;;6274299;22;20023;-84
2022/11/06 11:28:34;;;;;;;5.65;1.80;;;12.00;99.90;;;;;;6274624;22;20003;-84
2022/11/06 11:31:13;;;;;;;6.87;1.90;;;12.00;99.90;;;;;;6247324;22;20004;-84
2022/11/06 11:33:41;;;;;;;9.70;2.47;;;12.00;99.90;;;;;;6274371;22;20038;-84
2022/11/06 11:36:08;;;;;;;5.03;1.90;;;12.00;99.90;;;;;;6247062;22;20196;-84
2022/11/06 11:38:38;;;;;;;7.10;1.80;;;12.00;99.90;;;;;;6273954;22;20007;-84
2022/11/06 11:41:05;;;;;;;;;;;12.00;99.90;;;;;;6274769;22;20011;-84
2022/11/06 11:43:31;;;;;;;7.97;1.90;;;12.00;99.90;;;;;;6274257;22;19903;-84
2022/11/06 11:46:17;;;;;;;6.50;1.57;;;12.00;99.90;;;;;;6274095;22;20008;-83
2022/11/06 11:48:44;;;;;;;7.67;1.60;;;12.00;99.90;;;;;;6247204;22;20003;-84
2022/11/06 11:51:28;;;;;;;5.10;1.80;;;12.00;99.90;;;;;;6274502;22;20038;-84
2022/11/06 11:54:16;;;;;;;6.43;1.70;;;12.00;99.90;;;;;;6221789;22;20016;-84
2022/11/06 11:56:49;;;;;;;7.43;1.80;;;12.00;99.90;;;;;;6245894;22;20008;-84
2022/11/06 11:59:28;;;;;;;8.10;2.03;;;12.00;99.90;;;;;;6274017;22;20014;-84
2022/11/06 12:01:59;;;;;;;5.82;2.15;;;12.10;99.90;;;;;;6274146;22;20030;-84
2022/11/06 12:04:33;;;;;;;8.87;2.70;;;12.10;99.90;;;;;;6247153;22;20316;-84
2022/11/06 12:07:02;;;;;;;7.23;2.30;;;12.10;99.90;;;;;;6273870;22;20004;-84
2022/11/06 12:09:30;;;;;;;;;;;12.20;99.90;;;;;;6247519;22;20061;-84
2022/11/06 12:11:59;;;;;;;9.57;2.87;;;12.20;99.90;;;;;;6273919;22;19982;-84
2022/11/06 12:14:36;;;;;;;7.80;2.47;;;12.20;99.90;;;;;;6274061;22;20082;-84
2022/11/06 12:17:04;;;;;;;6.13;2.20;;;12.20;99.90;;;;;;6247072;22;20008;-84
2022/11/06 12:19:34;;;;;;;12.52;2.40;;;12.30;99.90;;;;;;6273556;22;20027;-84
2022/11/06 12:22:05;;;;;;;4.17;1.83;;;12.30;99.90;;;;;;6246911;22;20098;-84
2022/11/06 12:24:41;;;;;;;6.77;1.97;;;12.30;99.90;;;;;;6247207;22;20015;-84
2022/11/06 12:27:16;;;;;;;5.37;2.20;;;12.30;99.90;;;;;;6273715;22;20061;-84
2022/11/06 12:29:47;;;;;;;7.03;2.13;;;12.30;99.90;;;;;;6273396;22;20007;-83
2022/11/06 12:32:30;;;;;;;5.85;2.00;;;12.20;99.90;;;;;;6273924;22;20007;-84
2022/11/06 12:35:06;;;;;;;9.17;2.30;;;12.20;99.90;;;;;;6246717;22;20453;-84
2022/11/06 12:38:08;;;;;;;7.93;2.10;;;12.20;99.90;;;;;;6274209;22;20030;-84
2022/11/06 12:40:42;;;;;;;6.80;2.00;;;12.20;99.90;;;;;;6221013;22;20408;-84
2022/11/06 12:43:35;;;;;;;5.22;2.00;;;12.20;99.90;;;;;;6246664;22;20689;-84
2022/11/06 12:46:20;;;;;;;4.93;2.00;;;12.20;99.90;;;;;;6273504;22;20061;-84
2022/11/06 12:49:05;;;;;;;5.87;1.90;;;12.20;99.90;;;;;;6273501;22;20438;-84
2022/11/06 12:51:40;;;;;;;6.93;2.08;;;12.20;99.90;;;;;;6273666;22;20100;-84
2022/11/06 12:54:24;;;;;;;5.22;2.05;;;12.20;99.90;;;;;;6274139;22;20004;-84
2022/11/06 12:57:06;;;;;;;5.72;2.03;;;12.20;99.90;;;;;;6273433;22;20003;-84
2022/11/06 12:59:54;;;;;;;7.40;2.47;;;12.20;99.90;;;;;;6273505;22;20422;-84
2022/11/06 13:02:39;;;;;;;6.05;2.40;;;12.20;99.90;;;;;;6273740;22;20004;-84
2022/11/06 13:05:16;;;;;;;8.85;2.65;;;12.20;99.90;;;;;;6273585;22;20074;-84
2022/11/06 13:08:12;;;;;;;6.03;2.03;;;12.10;99.90;;;;;;6273252;22;20004;-84
2022/11/06 13:11:08;;;;;;;5.90;1.73;;;12.10;99.90;;;;;;6273181;22;20008;-81
2022/11/06 13:13:53;;;;;;;7.20;2.25;;;12.10;99.90;;;;;;6273800;22;20034;-81
2022/11/06 13:16:30;;;;;;;4.95;1.95;;;12.10;99.90;;;;;;6271883;22;20008;-81
2022/11/06 13:19:20;;;;;;;6.17;1.97;;;12.10;99.90;;;;;;6271815;22;20061;-82
2022/11/06 13:22:08;;;;;;;3.92;1.90;;;12.10;99.90;;;;;;6273401;22;20099;-84
2022/11/06 13:25:06;;;;;;;7.43;2.28;;;12.20;99.90;;;;;;6273671;22;20003;-82
2022/11/06 13:27:47;;;;;;;4.85;1.73;;;12.20;99.90;;;;;;6246372;22;20015;-81
2022/11/06 13:30:20;;;;;;;6.23;2.00;;;12.30;99.90;;;;;;6273336;22;20004;-82
2022/11/06 13:33:16;;;;;;;5.97;2.20;;;12.20;99.90;;;;;;6273344;22;20058;-82
2022/11/06 13:38:51;;;;;;;8.10;2.72;;;12.70;99.90;;;;;;6230790;22;20109;-84
2022/11/06 13:41:21;;;;;;;9.20;2.05;;;12.60;99.90;;;;;;6216614;23;20019;-84
2022/11/06 13:43:53;;;;;;;8.23;3.63;;;12.50;99.90;;;;;;6191156;23;20015;-83
2022/11/06 13:46:35;;;;;;;5.10;2.20;;;12.40;99.90;;;;;;6216630;23;20031;-86
2022/11/06 13:49:54;;;;;;;4.72;2.28;;;12.40;99.90;;;;;;6218373;23;20004;-82
2022/11/06 13:52:37;;;;;;;5.25;2.00;;;12.40;99.90;;;;;;6238586;23;20018;-82
2022/11/06 13:55:18;;;;;;;5.30;2.20;;;12.50;99.90;;;;;;6245038;23;20008;-83
2022/11/06 13:57:54;;;;;;;5.25;1.98;;;12.50;99.90;;;;;;6241720;23;20018;-82
2022/11/06 14:00:21;;;;;;;7.15;2.17;;;12.40;99.90;;;;;;6242556;23;20015;-82
2022/11/06 14:03:32;;;;;;;4.97;1.88;;;12.50;99.90;;;;;;6242481;23;20096;-83
2022/11/06 14:06:17;;;;;;;7.55;2.10;;;12.50;99.90;;;;;;6212678;23;20487;-83
2022/11/06 14:08:51;;;;;;;6.00;1.88;;;12.50;99.90;;;;;;6216952;23;20047;-83
2022/11/06 14:11:48;;;;;;;5.13;1.90;;;12.50;99.90;;;;;;6217420;23;20008;-83
2022/11/06 14:14:24;;;;;;;4.70;2.00;;;12.50;99.90;;;;;;6217044;23;20091;-83
2022/11/06 14:17:09;;;;;;;3.75;1.65;;;12.50;99.90;;;;;;6242116;23;20031;-84
2022/11/06 14:19:35;;;;;;;6.95;2.20;;;12.50;99.90;;;;;;6242813;23;20059;-84
2022/11/06 14:22:26;;;;;;;6.88;1.98;;;12.50;99.90;;;;;;6242964;23;20054;-84
2022/11/06 14:24:51;;;;;;;6.75;2.00;;;12.50;99.90;;;;;;6224000;23;20070;-83
2022/11/06 14:27:17;;;;;;;6.57;2.30;;;12.60;99.90;;;;;;6243025;23;20006;-83
2022/11/06 14:29:54;;;;;;;5.68;2.25;;;12.50;99.90;;;;;;6242807;23;20083;-83
2022/11/06 14:32:22;;;;;;;4.90;2.00;;;12.60;99.90;;;;;;6240731;23;20439;-85
2022/11/06 14:34:48;;;;;;;3.47;1.83;;;12.50;99.90;;;;;;6239691;23;20036;-82
2022/11/06 14:37:44;;;;;;;7.15;1.90;;;12.60;99.90;;;;;;6241530;23;20430;-85
2022/11/06 14:40:13;;;;;;;4.30;1.77;;;12.50;99.90;;;;;;6191383;23;20013;-84
2022/11/06 14:42:43;;;;;;;4.65;2.17;;;12.50;99.90;;;;;;6212425;23;20087;-84
2022/11/06 14:45:18;;;;;;;5.55;1.63;;;12.50;99.90;;;;;;6186495;23;20008;-84
2022/11/06 14:47:55;;;;;;;5.03;1.63;;;12.40;99.90;;;;;;6212429;23;20507;-84
2022/11/06 14:50:50;;;;;;;5.30;2.08;;;12.40;99.90;;;;;;6213000;23;20614;-83
2022/11/06 14:53:24;;;;;;;7.15;2.00;;;12.30;99.90;;;;;;6204758;23;20009;-84
2022/11/06 14:56:00;;;;;;;4.05;1.58;;;12.30;99.90;;;;;;6185652;23;20019;-84
2022/11/06 14:58:28;;;;;;;3.95;1.80;;;12.30;99.90;;;;;;6210121;23;20011;-84
2022/11/06 15:01:12;;;;;;;6.10;1.83;;;12.20;99.90;;;;;;6210095;23;20454;-84
2022/11/06 15:04:01;;;;;;;4.50;1.42;;;12.20;99.90;;;;;;6211968;23;20047;-84
2022/11/06 15:06:30;;;;;;;5.35;1.73;;;12.20;99.90;;;;;;6212435;23;20030;-84
2022/11/06 17:57:32;;;;;;;3.90;2.03;;;10.90;99.90;;;;;;6223153;23;20063;-86
2022/11/06 17:59:58;;;;;;;6.37;2.33;;;10.80;99.90;;;;;;6191483;22;20013;-85
2022/11/06 18:45:06;;;;;;;5.60;2.40;;;10.80;99.90;;;;;;6210802;23;20090;-88
2022/11/06 18:47:31;;;;;;;5.63;2.33;;;10.80;99.90;;;;;;6244073;23;20438;-87
2022/11/06 18:49:57;;;;;;;6.73;2.60;;;10.80;99.90;;;;;;6211580;23;20008;-87
2022/11/06 19:16:11;;;;;;;5.83;3.20;;;10.90;99.90;;;;;;6220799;22;20093;-87
2022/11/06 19:22:02;;;;;;;6.77;3.00;;;10.90;99.90;;;;;;6213762;23;20068;-87
2022/11/06 19:24:53;;;;;;;;;;;;;;;;;;;;;
2022/11/06 19:33:28;;;;;;;5.83;2.70;;;10.90;99.90;;;;;;6229981;22;20024;-87
2022/11/06 19:42:24;;;;;;;5.47;2.87;;;10.90;99.90;;;;;;6180979;22;20036;-87
2022/11/06 19:45:17;;;;;;;5.20;2.70;;;10.90;99.90;;;;;;6254302;23;20062;-91
2022/11/06 19:47:52;;;;;;;6.33;2.93;;;10.90;99.90;;;;;;6244431;23;20083;-89
2022/11/06 19:50:21;;;;;;;7.07;2.80;;;10.90;99.90;;;;;;6244844;23;20015;-91
2022/11/06 19:52:47;;;;;;;5.20;2.53;;;11.00;99.90;;;;;;6245272;22;20000;-86
2022/11/06 19:55:13;;;;;;;6.10;2.60;;;11.00;99.90;;;;;;6243856;23;20453;-88
2022/11/06 19:57:38;;;;;;;7.60;2.80;;;11.00;99.90;;;;;;6243418;23;20056;-87
2022/11/06 20:00:05;;;;;;;5.20;2.30;;;11.00;99.90;;;;;;6241192;22;20095;-87
2022/11/06 20:02:34;;;;;;;4.70;2.40;;;11.00;99.90;;;;;;6240612;23;20031;-87
2022/11/06 20:05:00;;;;;;;5.93;2.73;;;10.90;99.90;;;;;;6240986;23;20442;-87
2022/11/06 20:07:26;;;;;;;7.03;2.67;;;11.00;99.90;;;;;;6243210;22;20000;-87
2022/11/06 20:09:53;;;;;;;4.93;2.57;;;11.00;99.90;;;;;;6243103;22;20026;-87
2022/11/06 20:12:19;;;;;;;5.83;2.60;;;11.00;99.90;;;;;;6243722;22;20368;-87
2022/11/06 20:14:47;;;;;;;4.80;2.40;;;11.00;99.90;;;;;;6243507;23;20032;-87
2022/11/06 20:17:13;;;;;;;5.53;2.47;;;11.10;99.90;;;;;;6243541;23;20004;-87
2022/11/06 20:19:40;;;;;;;4.37;2.60;;;11.10;99.90;;;;;;6241507;23;20015;-87
2022/11/06 20:22:05;;;;;;;6.43;2.80;;;11.10;99.90;;;;;;6243271;22;20008;-87
2022/11/06 20:24:31;;;;;;;4.57;2.37;;;11.10;99.90;;;;;;6243235;23;20000;-87
2022/11/06 20:26:57;;;;;;;14.03;8.10;;;11.10;99.90;;;;;;6243370;23;20086;-87
2022/11/06 20:29:23;;;;;;;11.90;6.47;;;11.10;99.90;;;;;;6243476;23;20110;-87
2022/11/06 20:31:49;;;;;;;10.77;4.50;;;11.10;99.90;;;;;;6243222;23;20039;-87
2022/11/06 20:34:15;;;;;;;5.63;2.57;;;11.10;99.90;;;;;;6241719;23;20011;-87
2022/11/06 20:36:40;;;;;;;5.07;2.20;;;11.10;99.90;;;;;;6243498;23;20530;-87
2022/11/06 20:39:08;;;;;;;3.63;1.90;;;11.10;99.90;;;;;;6242792;22;20011;-87
2022/11/06 20:41:33;;;;;;;5.03;2.00;;;11.20;99.90;;;;;;6241596;23;20000;-87
2022/11/06 20:44:02;;;;;;;5.10;2.27;;;11.10;99.90;;;;;;6220537;23;20076;-86
2022/11/06 20:46:27;;;;;;;4.37;2.10;;;11.10;99.90;;;;;;6212742;23;20009;-86
2022/11/06 20:48:57;;;;;;;4.10;2.00;;;11.10;99.90;;;;;;6212459;23;20067;-86
2022/11/06 20:51:26;;;;;;;4.77;2.13;;;11.20;99.90;;;;;;6211624;23;20005;-87
2022/11/06 20:53:52;;;;;;;5.43;2.13;;;11.20;99.90;;;;;;6211132;23;20507;-87
2022/11/06 20:56:20;;;;;;;6.20;2.23;;;11.10;99.90;;;;;;6210671;23;20012;-87
2022/11/06 20:58:46;;;;;;;5.43;2.30;;;11.10;99.90;;;;;;6210834;23;20013;-87
2022/11/06 21:01:19;;;;;;;5.60;2.03;;;11.10;99.90;;;;;;6211496;23;20032;-87
2022/11/06 21:03:46;;;;;;;6.17;2.50;;;11.20;99.90;;;;;;6212599;23;20082;-86
2022/11/06 21:06:15;;;;;;;5.03;2.23;;;11.20;99.90;;;;;;6212988;23;20004;-86
2022/11/06 21:08:41;;;;;;;3.40;1.83;;;11.10;99.90;;;;;;6210214;22;19989;-82
2022/11/06 21:11:15;;;;;;;4.73;2.20;;;11.20;99.90;;;;;;6222772;23;20451;-84
2022/11/06 21:13:42;;;;;;;5.50;1.90;;;11.20;99.90;;;;;;6191404;23;20020;-85
2022/11/06 21:16:15;;;;;;;6.30;2.33;;;11.20;99.90;;;;;;6212869;23;20008;-82
2022/11/06 21:18:42;;;;;;;4.03;1.80;;;11.20;99.90;;;;;;6186317;23;20079;-83
2022/11/06 21:21:10;;;;;;;4.03;2.03;;;11.20;99.90;;;;;;6211142;23;20008;-83
2022/11/06 21:23:36;;;;;;;5.53;1.80;;;11.10;99.90;;;;;;6211262;23;20401;-82
2022/11/06 21:26:07;;;;;;;4.00;1.80;;;11.20;99.90;;;;;;6185702;23;20036;-83
2022/11/06 21:28:34;;;;;;;5.37;2.00;;;11.20;99.90;;;;;;6212460;23;20059;-82
2022/11/06 21:31:00;;;;;;;4.70;1.90;;;11.20;99.90;;;;;;6212506;23;20071;-83
2022/11/06 21:33:26;;;;;;;3.30;1.70;;;11.20;99.90;;;;;;6212751;23;20031;-82
2022/11/06 21:35:51;;;;;;;5.10;1.83;;;11.20;99.90;;;;;;6212252;23;20004;-83
2022/11/06 21:38:17;;;;;;;3.67;1.57;;;11.30;99.90;;;;;;6212591;23;20007;-84
2022/11/06 21:40:43;;;;;;;5.30;1.80;;;11.30;99.90;;;;;;6212219;23;20005;-83
2022/11/06 21:43:08;;;;;;;7.90;2.00;;;11.30;99.90;;;;;;6212743;23;20011;-82
2022/11/06 21:45:34;;;;;;;5.27;1.60;;;11.30;99.90;;;;;;6211131;23;20092;-83
2022/11/06 21:48:00;;;;;;;4.73;1.50;;;11.40;99.90;;;;;;6212413;23;20008;-82
2022/11/06 21:50:26;;;;;;;3.80;1.70;;;11.30;99.90;;;;;;6210836;23;20001;-83
2022/11/06 21:58:21;;;;;;;9.03;5.03;;;11.40;99.90;;;;;;6210753;23;20347;-82
2022/11/06 22:00:47;;;;;;;7.80;3.30;;;11.40;99.90;;;;;;6210715;23;20015;-82
2022/11/06 22:03:14;;;;;;;5.40;2.03;;;11.40;99.90;;;;;;6212411;23;20031;-82